sensor_id;sensor_type;location;lat;lon;timestamp;pressure;altitude;pressure_sealevel;temperature;humidity
6224;BME280;3145;42.726;23.342;2024-01-15T00:00:51;74043.91;;;-142.70;71.88
6224;BME280;3145;42.726;23.342;2024-01-15T00:03:19;74027.78;;;-142.70;71.96
6224;BME280;3145;42.726;23.342;2024-01-15T00:05:46;74033.84;;;-142.70;72.04
6224;BME280;3145;42.726;23.342;2024-01-15T00:08:13;74041.88;;;-142.70;72.01
6224;BME280;3145;42.726;23.342;2024-01-15T00:10:39;74060.03;;;-142.70;72.20
6224;BME280;3145;42.726;23.342;2024-01-15T00:13:06;74060.03;;;-142.70;72.23
6224;BME280;3145;42.726;23.342;2024-01-15T00:15:33;74058.00;;;-142.70;72.55
6224;BME280;3145;42.726;23.342;2024-01-15T00:18:00;74068.09;;;-142.70;72.71
6224;BME280;3145;42.726;23.342;2024-01-15T00:20:28;74060.03;;;-142.70;72.85
6224;BME280;3145;42.726;23.342;2024-01-15T00:22:55;74060.03;;;-142.70;72.62
6224;BME280;3145;42.726;23.342;2024-01-15T00:25:21;74049.94;;;-142.70;72.81
6224;BME280;3145;42.726;23.342;2024-01-15T00:27:49;74056.00;;;-142.70;72.71
6224;BME280;3145;42.726;23.342;2024-01-15T00:30:15;74051.97;;;-142.70;72.59
6224;BME280;3145;42.726;23.342;2024-01-15T00:32:42;74045.94;;;-142.70;72.70
6224;BME280;3145;42.726;23.342;2024-01-15T00:35:09;74047.94;;;-142.70;72.69
6224;BME280;3145;42.726;23.342;2024-01-15T00:37:37;74051.97;;;-142.70;72.79
6224;BME280;3145;42.726;23.342;2024-01-15T00:40:05;74049.94;;;-142.70;72.69
6224;BME280;3145;42.726;23.342;2024-01-15T00:42:33;74051.97;;;-142.70;72.55
6224;BME280;3145;42.726;23.342;2024-01-15T00:45:00;74056.00;;;-142.70;72.62
6224;BME280;3145;42.726;23.342;2024-01-15T00:47:26;74051.97;;;-142.70;72.54
6224;BME280;3145;42.726;23.342;2024-01-15T00:49:53;74045.94;;;-142.70;72.62
6224;BME280;3145;42.726;23.342;2024-01-15T00:52:20;74041.88;;;-142.70;72.63
6224;BME280;3145;42.726;23.342;2024-01-15T00:54:48;74047.94;;;-142.70;72.69
6224;BME280;3145;42.726;23.342;2024-01-15T00:57:14;74056.00;;;-142.70;72.78
6224;BME280;3145;42.726;23.342;2024-01-15T00:59:41;74066.06;;;-142.70;72.74
6224;BME280;3145;42.726;23.342;2024-01-15T01:02:08;74082.19;;;-142.70;72.77
6224;BME280;3145;42.726;23.342;2024-01-15T01:04:34;74072.13;;;-142.70;72.49
6224;BME280;3145;42.726;23.342;2024-01-15T01:07:01;74080.19;;;-142.70;72.75
6224;BME280;3145;42.726;23.342;2024-01-15T01:09:28;74080.19;;;-142.70;72.40
6224;BME280;3145;42.726;23.342;2024-01-15T01:11:57;74088.25;;;-142.70;72.45
6224;BME280;3145;42.726;23.342;2024-01-15T01:14:23;74088.25;;;-142.70;72.54
6224;BME280;3145;42.726;23.342;2024-01-15T01:16:50;74096.31;;;-142.70;72.69
6224;BME280;3145;42.726;23.342;2024-01-15T01:19:17;74100.34;;;-142.70;72.42
6224;BME280;3145;42.726;23.342;2024-01-15T01:21:43;74102.34;;;-142.70;72.62
6224;BME280;3145;42.726;23.342;2024-01-15T01:24:10;74094.28;;;-142.70;72.94
6224;BME280;3145;42.726;23.342;2024-01-15T01:26:37;74092.28;;;-142.70;72.93
6224;BME280;3145;42.726;23.342;2024-01-15T01:29:05;74092.28;;;-142.70;72.95
6224;BME280;3145;42.726;23.342;2024-01-15T01:31:31;74092.28;;;-142.70;72.94
6224;BME280;3145;42.726;23.342;2024-01-15T01:33:58;74088.25;;;-142.70;72.62
6224;BME280;3145;42.726;23.342;2024-01-15T01:36:25;74094.28;;;-142.70;72.35
6224;BME280;3145;42.726;23.342;2024-01-15T01:38:51;74092.28;;;-142.70;72.37
6224;BME280;3145;42.726;23.342;2024-01-15T01:41:18;74106.38;;;-142.70;71.96
6224;BME280;3145;42.726;23.342;2024-01-15T01:43:45;74116.47;;;-142.70;72.08
6224;BME280;3145;42.726;23.342;2024-01-15T01:46:13;74128.56;;;-142.70;72.60
6224;BME280;3145;42.726;23.342;2024-01-15T01:48:40;74136.63;;;-142.70;72.81
6224;BME280;3145;42.726;23.342;2024-01-15T01:51:07;74136.63;;;-142.70;73.25
6224;BME280;3145;42.726;23.342;2024-01-15T01:53:34;74142.66;;;-142.70;73.18
6224;BME280;3145;42.726;23.342;2024-01-15T01:56:03;74138.63;;;-142.70;73.57
6224;BME280;3145;42.726;23.342;2024-01-15T01:58:30;74144.69;;;-142.70;73.92
6224;BME280;3145;42.726;23.342;2024-01-15T02:00:58;74146.69;;;-142.70;73.77
6224;BME280;3145;42.726;23.342;2024-01-15T02:03:27;74146.69;;;-142.70;73.90
6224;BME280;3145;42.726;23.342;2024-01-15T02:05:54;74140.66;;;-142.70;74.28
6224;BME280;3145;42.726;23.342;2024-01-15T02:08:21;74148.72;;;-142.70;74.25
6224;BME280;3145;42.726;23.342;2024-01-15T02:10:48;74156.78;;;-142.70;74.62
6224;BME280;3145;42.726;23.342;2024-01-15T02:13:15;74154.75;;;-142.70;74.94
6224;BME280;3145;42.726;23.342;2024-01-15T02:15:42;74152.75;;;-142.70;75.24
6224;BME280;3145;42.726;23.342;2024-01-15T02:18:09;74140.66;;;-142.70;75.22
6224;BME280;3145;42.726;23.342;2024-01-15T02:20:37;74132.59;;;-142.70;75.19
6224;BME280;3145;42.726;23.342;2024-01-15T02:23:08;74112.44;;;-142.70;75.21
6224;BME280;3145;42.726;23.342;2024-01-15T02:25:35;74116.47;;;-142.70;75.18
6224;BME280;3145;42.726;23.342;2024-01-15T02:28:03;74108.41;;;-142.70;75.35
6224;BME280;3145;42.726;23.342;2024-01-15T02:30:31;74128.56;;;-142.70;75.58
6224;BME280;3145;42.726;23.342;2024-01-15T02:32:58;74112.44;;;-142.70;75.73
6224;BME280;3145;42.726;23.342;2024-01-15T02:35:24;74146.69;;;-142.70;75.65
6224;BME280;3145;42.726;23.342;2024-01-15T02:37:51;74132.59;;;-142.70;75.93
6224;BME280;3145;42.726;23.342;2024-01-15T02:40:19;74164.84;;;-142.70;76.05
6224;BME280;3145;42.726;23.342;2024-01-15T02:42:46;74160.81;;;-142.70;76.27
6224;BME280;3145;42.726;23.342;2024-01-15T02:45:13;74160.81;;;-142.70;75.86
6224;BME280;3145;42.726;23.342;2024-01-15T02:47:39;74152.75;;;-142.70;76.29
6224;BME280;3145;42.726;23.342;2024-01-15T02:50:06;74152.75;;;-142.70;75.76
6224;BME280;3145;42.726;23.342;2024-01-15T02:52:33;74148.72;;;-142.70;75.71
6224;BME280;3145;42.726;23.342;2024-01-15T02:55:00;74154.75;;;-142.70;75.77
6224;BME280;3145;42.726;23.342;2024-01-15T02:57:28;74142.66;;;-142.70;75.64
6224;BME280;3145;42.726;23.342;2024-01-15T02:59:55;74140.66;;;-142.70;75.71
6224;BME280;3145;42.726;23.342;2024-01-15T03:02:21;74134.59;;;-142.70;75.48
6224;BME280;3145;42.726;23.342;2024-01-15T03:04:48;74124.53;;;-142.70;75.51
6224;BME280;3145;42.726;23.342;2024-01-15T03:07:15;74124.53;;;-142.70;75.46
6224;BME280;3145;42.726;23.342;2024-01-15T03:09:42;74116.47;;;-142.70;75.19
6224;BME280;3145;42.726;23.342;2024-01-15T03:12:08;74108.41;;;-142.70;75.01
6224;BME280;3145;42.726;23.342;2024-01-15T03:14:37;74124.53;;;-142.70;74.97
6224;BME280;3145;42.726;23.342;2024-01-15T03:17:04;74116.47;;;-142.70;74.82
6224;BME280;3145;42.726;23.342;2024-01-15T03:19:34;74112.44;;;-142.70;74.66
6224;BME280;3145;42.726;23.342;2024-01-15T03:22:01;74122.50;;;-142.70;74.27
6224;BME280;3145;42.726;23.342;2024-01-15T03:24:29;74124.53;;;-142.70;74.39
6224;BME280;3145;42.726;23.342;2024-01-15T03:26:55;74108.41;;;-142.70;74.84
6224;BME280;3145;42.726;23.342;2024-01-15T03:29:22;74108.41;;;-142.70;74.50
6224;BME280;3145;42.726;23.342;2024-01-15T03:31:50;74106.38;;;-142.70;74.75
6224;BME280;3145;42.726;23.342;2024-01-15T03:34:17;74106.38;;;-142.70;74.90
6224;BME280;3145;42.726;23.342;2024-01-15T03:36:44;74112.44;;;-142.70;74.88
6224;BME280;3145;42.726;23.342;2024-01-15T03:39:10;74110.41;;;-142.70;74.69
6224;BME280;3145;42.726;23.342;2024-01-15T03:41:37;74092.28;;;-142.70;75.13
6224;BME280;3145;42.726;23.342;2024-01-15T03:44:04;74084.22;;;-142.70;75.16
6224;BME280;3145;42.726;23.342;2024-01-15T03:46:31;74078.16;;;-142.70;75.16
6224;BME280;3145;42.726;23.342;2024-01-15T03:48:59;74066.06;;;-142.70;75.40
6224;BME280;3145;42.726;23.342;2024-01-15T03:51:26;74060.03;;;-142.70;75.49
6224;BME280;3145;42.726;23.342;2024-01-15T03:53:52;74058.00;;;-142.70;75.54
6224;BME280;3145;42.726;23.342;2024-01-15T03:56:19;74056.00;;;-142.70;75.47
6224;BME280;3145;42.726;23.342;2024-01-15T03:58:45;74039.88;;;-142.70;75.45
6224;BME280;3145;42.726;23.342;2024-01-15T04:01:12;74019.72;;;-142.70;75.49
6224;BME280;3145;42.726;23.342;2024-01-15T04:03:39;74015.69;;;-142.70;75.54
6224;BME280;3145;42.726;23.342;2024-01-15T04:06:07;74011.66;;;-142.70;75.81
6224;BME280;3145;42.726;23.342;2024-01-15T04:08:34;73999.56;;;-142.70;75.62
6224;BME280;3145;42.726;23.342;2024-01-15T04:11:01;73991.50;;;-142.70;75.38
6224;BME280;3145;42.726;23.342;2024-01-15T04:13:28;73985.47;;;-142.70;75.59
6224;BME280;3145;42.726;23.342;2024-01-15T04:15:54;73991.50;;;-142.70;75.18
6224;BME280;3145;42.726;23.342;2024-01-15T04:18:21;73983.44;;;-142.70;75.16
6224;BME280;3145;42.726;23.342;2024-01-15T04:20:47;73987.47;;;-142.70;75.06
6224;BME280;3145;42.726;23.342;2024-01-15T04:23:16;73981.44;;;-142.70;75.02
6224;BME280;3145;42.726;23.342;2024-01-15T04:25:42;73975.38;;;-142.70;75.17
6224;BME280;3145;42.726;23.342;2024-01-15T04:28:10;73973.38;;;-142.70;75.26
6224;BME280;3145;42.726;23.342;2024-01-15T04:30:36;73979.41;;;-142.70;75.03
6224;BME280;3145;42.726;23.342;2024-01-15T04:33:03;73981.44;;;-142.70;74.59
6224;BME280;3145;42.726;23.342;2024-01-15T04:35:30;73979.41;;;-142.70;74.46
6224;BME280;3145;42.726;23.342;2024-01-15T04:37:57;73977.41;;;-142.70;74.58
6224;BME280;3145;42.726;23.342;2024-01-15T04:40:25;73987.47;;;-142.70;74.13
6224;BME280;3145;42.726;23.342;2024-01-15T04:42:53;74003.59;;;-142.70;74.05
6224;BME280;3145;42.726;23.342;2024-01-15T04:45:19;73995.53;;;-142.70;73.86
6224;BME280;3145;42.726;23.342;2024-01-15T04:47:48;73985.47;;;-142.70;74.00
6224;BME280;3145;42.726;23.342;2024-01-15T04:50:15;73987.47;;;-142.70;74.38
6224;BME280;3145;42.726;23.342;2024-01-15T04:52:41;73981.44;;;-142.70;74.30
6224;BME280;3145;42.726;23.342;2024-01-15T04:55:08;73991.50;;;-142.70;74.78
6224;BME280;3145;42.726;23.342;2024-01-15T04:57:36;73975.38;;;-142.70;74.40
6224;BME280;3145;42.726;23.342;2024-01-15T05:00:04;73967.31;;;-142.70;74.58
6224;BME280;3145;42.726;23.342;2024-01-15T05:02:31;73957.25;;;-142.70;74.48
6224;BME280;3145;42.726;23.342;2024-01-15T05:04:58;73953.22;;;-142.70;74.45
6224;BME280;3145;42.726;23.342;2024-01-15T05:07:24;73955.22;;;-142.70;74.47
6224;BME280;3145;42.726;23.342;2024-01-15T05:09:51;73951.19;;;-142.70;74.46
6224;BME280;3145;42.726;23.342;2024-01-15T05:12:18;73951.19;;;-142.70;74.13
6224;BME280;3145;42.726;23.342;2024-01-15T05:14:46;73959.25;;;-142.70;73.93
6224;BME280;3145;42.726;23.342;2024-01-15T05:17:12;73953.22;;;-142.70;73.83
6224;BME280;3145;42.726;23.342;2024-01-15T05:19:39;73961.28;;;-142.70;73.63
6224;BME280;3145;42.726;23.342;2024-01-15T05:22:06;73967.31;;;-142.70;73.98
6224;BME280;3145;42.726;23.342;2024-01-15T05:24:32;73981.44;;;-142.70;73.67
6224;BME280;3145;42.726;23.342;2024-01-15T05:26:59;73985.47;;;-142.70;73.90
6224;BME280;3145;42.726;23.342;2024-01-15T05:29:26;73983.44;;;-142.70;74.00
6224;BME280;3145;42.726;23.342;2024-01-15T05:31:54;73987.47;;;-142.70;74.53
6224;BME280;3145;42.726;23.342;2024-01-15T05:34:21;73983.44;;;-142.70;74.64
6224;BME280;3145;42.726;23.342;2024-01-15T05:36:48;73975.38;;;-142.70;75.01
6224;BME280;3145;42.726;23.342;2024-01-15T05:39:14;73975.38;;;-142.70;74.86
6224;BME280;3145;42.726;23.342;2024-01-15T05:41:41;73959.25;;;-142.70;75.07
6224;BME280;3145;42.726;23.342;2024-01-15T05:44:08;73949.19;;;-142.70;74.98
6224;BME280;3145;42.726;23.342;2024-01-15T05:46:35;73941.13;;;-142.70;75.04
6224;BME280;3145;42.726;23.342;2024-01-15T05:49:03;73931.06;;;-142.70;75.01
6224;BME280;3145;42.726;23.342;2024-01-15T05:51:30;73929.03;;;-142.70;75.23
6224;BME280;3145;42.726;23.342;2024-01-15T05:53:56;73927.00;;;-142.70;74.61
6224;BME280;3145;42.726;23.342;2024-01-15T05:56:23;73931.06;;;-142.70;74.40
6224;BME280;3145;42.726;23.342;2024-01-15T05:58:50;73939.09;;;-142.70;74.42
6224;BME280;3145;42.726;23.342;2024-01-15T06:01:17;73939.09;;;-142.70;74.57
6224;BME280;3145;42.726;23.342;2024-01-15T06:03:44;73935.06;;;-142.70;74.85
6224;BME280;3145;42.726;23.342;2024-01-15T06:06:12;73943.13;;;-142.70;74.96
6224;BME280;3145;42.726;23.342;2024-01-15T06:08:39;73951.19;;;-142.70;75.06
6224;BME280;3145;42.726;23.342;2024-01-15T06:11:06;73967.31;;;-142.70;74.91
6224;BME280;3145;42.726;23.342;2024-01-15T06:13:33;73959.25;;;-142.70;75.01
6224;BME280;3145;42.726;23.342;2024-01-15T06:15:59;73929.03;;;-142.70;75.31
6224;BME280;3145;42.726;23.342;2024-01-15T06:18:26;73882.69;;;-142.70;75.41
6224;BME280;3145;42.726;23.342;2024-01-15T06:20:53;73848.41;;;-142.70;75.61
6224;BME280;3145;42.726;23.342;2024-01-15T06:23:21;73818.19;;;-142.70;75.22
6224;BME280;3145;42.726;23.342;2024-01-15T06:25:47;73785.94;;;-142.70;74.58
6224;BME280;3145;42.726;23.342;2024-01-15T06:28:14;73735.56;;;-142.70;74.47
6224;BME280;3145;42.726;23.342;2024-01-15T06:30:41;73751.69;;;-142.70;72.93
6224;BME280;3145;42.726;23.342;2024-01-15T06:33:07;73733.56;;;-142.70;73.36
6224;BME280;3145;42.726;23.342;2024-01-15T06:35:34;73677.13;;;-142.70;74.20
6224;BME280;3145;42.726;23.342;2024-01-15T06:38:01;73661.00;;;-142.70;74.46
6224;BME280;3145;42.726;23.342;2024-01-15T06:40:29;73610.63;;;-142.70;74.34
6224;BME280;3145;42.726;23.342;2024-01-15T06:42:56;73552.19;;;-142.70;73.77
6224;BME280;3145;42.726;23.342;2024-01-15T06:45:22;73523.97;;;-142.70;73.00
6224;BME280;3145;42.726;23.342;2024-01-15T06:47:49;73526.00;;;-142.70;71.34
6224;BME280;3145;42.726;23.342;2024-01-15T06:50:16;73519.94;;;-142.70;70.48
6224;BME280;3145;42.726;23.342;2024-01-15T06:52:43;73491.72;;;-142.70;70.13
6224;BME280;3145;42.726;23.342;2024-01-15T06:55:09;73475.63;;;-142.70;69.63
6224;BME280;3145;42.726;23.342;2024-01-15T06:57:37;73485.69;;;-142.70;68.89
6224;BME280;3145;42.726;23.342;2024-01-15T07:00:05;73503.81;;;-142.70;68.26
6224;BME280;3145;42.726;23.342;2024-01-15T07:02:33;73499.78;;;-142.70;68.41
6224;BME280;3145;42.726;23.342;2024-01-15T07:05:00;73499.78;;;-142.70;68.04
6224;BME280;3145;42.726;23.342;2024-01-15T07:07:27;73515.91;;;-142.70;67.65
6224;BME280;3145;42.726;23.342;2024-01-15T07:09:55;73507.84;;;-142.70;67.62
6224;BME280;3145;42.726;23.342;2024-01-15T07:12:21;73511.88;;;-142.70;67.36
6224;BME280;3145;42.726;23.342;2024-01-15T07:14:49;73521.97;;;-142.70;67.64
6224;BME280;3145;42.726;23.342;2024-01-15T07:17:16;73546.13;;;-142.70;67.67
6224;BME280;3145;42.726;23.342;2024-01-15T07:19:43;73560.25;;;-142.70;67.66
6224;BME280;3145;42.726;23.342;2024-01-15T07:22:09;73580.41;;;-142.70;68.15
6224;BME280;3145;42.726;23.342;2024-01-15T07:24:36;73574.34;;;-142.70;68.49
6224;BME280;3145;42.726;23.342;2024-01-15T07:27:03;73568.31;;;-142.70;68.42
6224;BME280;3145;42.726;23.342;2024-01-15T07:29:30;73572.34;;;-142.70;68.12
6224;BME280;3145;42.726;23.342;2024-01-15T07:31:59;73592.50;;;-142.70;68.17
6224;BME280;3145;42.726;23.342;2024-01-15T07:34:26;73604.56;;;-142.70;68.31
6224;BME280;3145;42.726;23.342;2024-01-15T07:36:53;73602.56;;;-142.70;68.76
6224;BME280;3145;42.726;23.342;2024-01-15T07:39:20;73600.56;;;-142.70;68.94
6224;BME280;3145;42.726;23.342;2024-01-15T07:41:48;73628.75;;;-142.70;69.57
6224;BME280;3145;42.726;23.342;2024-01-15T07:44:14;73608.59;;;-142.70;70.05
6224;BME280;3145;42.726;23.342;2024-01-15T07:46:44;73642.88;;;-142.70;70.48
6224;BME280;3145;42.726;23.342;2024-01-15T07:49:12;73638.84;;;-142.70;70.40
6224;BME280;3145;42.726;23.342;2024-01-15T07:51:39;73661.00;;;-142.70;70.76
6224;BME280;3145;42.726;23.342;2024-01-15T07:54:06;73652.94;;;-142.70;71.28
6224;BME280;3145;42.726;23.342;2024-01-15T07:56:33;73648.91;;;-142.70;71.44
6224;BME280;3145;42.726;23.342;2024-01-15T07:59:00;73620.69;;;-142.70;72.00
6224;BME280;3145;42.726;23.342;2024-01-15T08:01:26;73628.75;;;-142.70;71.95
6224;BME280;3145;42.726;23.342;2024-01-15T08:03:53;73602.56;;;-142.70;71.38
6224;BME280;3145;42.726;23.342;2024-01-15T08:06:21;73616.66;;;-142.70;71.97
6224;BME280;3145;42.726;23.342;2024-01-15T08:08:48;73624.72;;;-142.70;71.89
6224;BME280;3145;42.726;23.342;2024-01-15T08:11:15;73630.78;;;-142.70;72.12
6224;BME280;3145;42.726;23.342;2024-01-15T08:13:42;73624.72;;;-142.70;71.45
6224;BME280;3145;42.726;23.342;2024-01-15T08:16:08;73596.53;;;-142.70;71.47
6224;BME280;3145;42.726;23.342;2024-01-15T08:18:35;73564.28;;;-142.70;71.02
6224;BME280;3145;42.726;23.342;2024-01-15T08:21:02;73564.28;;;-142.70;70.42
6224;BME280;3145;42.726;23.342;2024-01-15T08:23:30;73540.09;;;-142.70;70.80
6224;BME280;3145;42.726;23.342;2024-01-15T08:25:57;73503.81;;;-142.70;70.31
6224;BME280;3145;42.726;23.342;2024-01-15T08:28:24;73451.44;;;-142.70;70.05
6224;BME280;3145;42.726;23.342;2024-01-15T08:30:50;73397.03;;;-142.70;69.92
6224;BME280;3145;42.726;23.342;2024-01-15T08:33:17;73346.66;;;-142.70;68.32
6224;BME280;3145;42.726;23.342;2024-01-15T08:35:44;73314.41;;;-142.70;66.78
6224;BME280;3145;42.726;23.342;2024-01-15T08:38:10;73304.34;;;-142.70;65.29
6224;BME280;3145;42.726;23.342;2024-01-15T08:40:38;73290.22;;;-142.70;64.80
6224;BME280;3145;42.726;23.342;2024-01-15T08:43:05;73278.16;;;-142.70;64.03
6224;BME280;3145;42.726;23.342;2024-01-15T08:45:33;73314.41;;;-142.70;64.23
6224;BME280;3145;42.726;23.342;2024-01-15T08:47:59;73310.38;;;-142.70;64.26
6224;BME280;3145;42.726;23.342;2024-01-15T08:50:27;73326.50;;;-142.70;65.57
6224;BME280;3145;42.726;23.342;2024-01-15T08:52:54;73334.56;;;-142.70;65.55
6224;BME280;3145;42.726;23.342;2024-01-15T08:55:21;73374.88;;;-142.70;66.18
6224;BME280;3145;42.726;23.342;2024-01-15T08:57:50;73350.69;;;-142.70;65.95
6224;BME280;3145;42.726;23.342;2024-01-15T09:00:17;73304.34;;;-142.70;65.33
6224;BME280;3145;42.726;23.342;2024-01-15T09:02:44;73276.13;;;-142.70;64.63
6224;BME280;3145;42.726;23.342;2024-01-15T09:05:11;73274.13;;;-142.70;64.06
6224;BME280;3145;42.726;23.342;2024-01-15T09:07:38;73288.22;;;-142.70;64.73
6224;BME280;3145;42.726;23.342;2024-01-15T09:10:05;73260.00;;;-142.70;64.69
6224;BME280;3145;42.726;23.342;2024-01-15T09:12:32;73237.84;;;-142.70;64.33
6224;BME280;3145;42.726;23.342;2024-01-15T09:15:00;73213.66;;;-142.70;63.91
6224;BME280;3145;42.726;23.342;2024-01-15T09:17:29;73205.59;;;-142.70;63.28
6224;BME280;3145;42.726;23.342;2024-01-15T09:19:56;73177.41;;;-142.70;63.79
6224;BME280;3145;42.726;23.342;2024-01-15T09:22:22;73149.19;;;-142.70;62.40
6224;BME280;3145;42.726;23.342;2024-01-15T09:24:49;73125.00;;;-142.70;61.29
6224;BME280;3145;42.726;23.342;2024-01-15T09:27:16;73116.94;;;-142.70;61.36
6224;BME280;3145;42.726;23.342;2024-01-15T09:29:42;73104.88;;;-142.70;61.19
6224;BME280;3145;42.726;23.342;2024-01-15T09:32:12;73084.72;;;-142.70;60.28
6224;BME280;3145;42.726;23.342;2024-01-15T09:34:39;73084.72;;;-142.70;60.27
6224;BME280;3145;42.726;23.342;2024-01-15T09:37:06;73034.34;;;-142.70;59.57
6224;BME280;3145;42.726;23.342;2024-01-15T09:39:33;73032.31;;;-142.70;57.99
6224;BME280;3145;42.726;23.342;2024-01-15T09:42:00;72975.91;;;-142.70;58.43
6224;BME280;3145;42.726;23.342;2024-01-15T09:44:28;72899.34;;;-142.70;58.15
6224;BME280;3145;42.726;23.342;2024-01-15T09:46:55;72810.72;;;-142.70;56.45
6224;BME280;3145;42.726;23.342;2024-01-15T09:49:23;72750.28;;;-142.70;52.88
6224;BME280;3145;42.726;23.342;2024-01-15T09:51:50;72748.25;;;-142.70;50.18
6224;BME280;3145;42.726;23.342;2024-01-15T09:54:17;72794.59;;;-142.70;48.70
6224;BME280;3145;42.726;23.342;2024-01-15T09:56:45;72851.00;;;-142.70;49.15
6224;BME280;3145;42.726;23.342;2024-01-15T09:59:14;72863.09;;;-142.70;49.30
6224;BME280;3145;42.726;23.342;2024-01-15T10:01:41;72859.06;;;-142.70;49.49
6224;BME280;3145;42.726;23.342;2024-01-15T10:04:09;72857.03;;;-142.70;49.15
6224;BME280;3145;42.726;23.342;2024-01-15T10:06:38;72840.94;;;-142.70;49.58
6224;BME280;3145;42.726;23.342;2024-01-15T10:09:05;72842.94;;;-142.70;49.51
6224;BME280;3145;42.726;23.342;2024-01-15T10:11:33;72834.88;;;-142.70;50.12
6224;BME280;3145;42.726;23.342;2024-01-15T10:14:00;72814.75;;;-142.70;50.61
6224;BME280;3145;42.726;23.342;2024-01-15T10:16:27;72853.00;;;-142.70;50.68
6224;BME280;3145;42.726;23.342;2024-01-15T10:18:54;72895.31;;;-142.70;51.94
6224;BME280;3145;42.726;23.342;2024-01-15T10:21:21;72891.28;;;-142.70;52.58
6224;BME280;3145;42.726;23.342;2024-01-15T10:23:49;72822.78;;;-142.70;52.42
6224;BME280;3145;42.726;23.342;2024-01-15T10:26:16;72766.38;;;-142.70;51.37
6224;BME280;3145;42.726;23.342;2024-01-15T10:28:42;72732.13;;;-142.70;50.21
6224;BME280;3145;42.726;23.342;2024-01-15T10:31:09;72746.25;;;-142.70;49.12
6224;BME280;3145;42.726;23.342;2024-01-15T10:33:36;72734.16;;;-142.70;48.51
6224;BME280;3145;42.726;23.342;2024-01-15T10:36:09;72726.09;;;-142.70;48.40
6224;BME280;3145;42.726;23.342;2024-01-15T10:38:36;72722.06;;;-142.70;48.59
6224;BME280;3145;42.726;23.342;2024-01-15T10:41:04;72722.06;;;-142.70;48.75
6224;BME280;3145;42.726;23.342;2024-01-15T10:43:31;72705.94;;;-142.70;48.49
6224;BME280;3145;42.726;23.342;2024-01-15T10:45:58;72699.91;;;-142.70;48.88
6224;BME280;3145;42.726;23.342;2024-01-15T10:48:26;72663.63;;;-142.70;48.78
6224;BME280;3145;42.726;23.342;2024-01-15T10:50:56;72629.38;;;-142.70;48.27
6224;BME280;3145;42.726;23.342;2024-01-15T10:53:23;72605.22;;;-142.70;47.50
6224;BME280;3145;42.726;23.342;2024-01-15T10:55:51;72593.13;;;-142.70;47.10
6224;BME280;3145;42.726;23.342;2024-01-15T10:58:20;72593.13;;;-142.70;46.85
6224;BME280;3145;42.726;23.342;2024-01-15T11:00:47;72577.00;;;-142.70;46.89
6224;BME280;3145;42.726;23.342;2024-01-15T11:03:14;72583.06;;;-142.70;46.29
6224;BME280;3145;42.726;23.342;2024-01-15T11:05:43;72572.97;;;-142.70;45.64
6224;BME280;3145;42.726;23.342;2024-01-15T11:08:10;72540.75;;;-142.70;46.01
6224;BME280;3145;42.726;23.342;2024-01-15T11:10:38;72520.59;;;-142.70;45.18
6224;BME280;3145;42.726;23.342;2024-01-15T11:13:05;72496.44;;;-142.70;45.10
6224;BME280;3145;42.726;23.342;2024-01-15T11:15:54;72482.34;;;-142.70;44.09
6224;BME280;3145;42.726;23.342;2024-01-15T11:18:21;72476.28;;;-142.70;43.14
6224;BME280;3145;42.726;23.342;2024-01-15T11:23:45;72456.16;;;-142.70;43.49
6224;BME280;3145;42.726;23.342;2024-01-15T11:26:31;72429.97;;;-142.70;43.10
6224;BME280;3145;42.726;23.342;2024-01-15T11:28:59;72456.16;;;-142.70;42.36
6224;BME280;3145;42.726;23.342;2024-01-15T11:31:28;72444.06;;;-142.70;42.96
6224;BME280;3145;42.726;23.342;2024-01-15T11:33:55;72419.88;;;-142.70;43.29
6224;BME280;3145;42.726;23.342;2024-01-15T11:37:03;72405.78;;;-142.70;42.83
6224;BME280;3145;42.726;23.342;2024-01-15T11:39:39;72413.84;;;-142.70;42.90
6224;BME280;3145;42.726;23.342;2024-01-15T11:42:09;72436.00;;;-142.70;42.51
6224;BME280;3145;42.726;23.342;2024-01-15T11:44:37;72470.25;;;-142.70;42.91
6224;BME280;3145;42.726;23.342;2024-01-15T11:47:06;72458.16;;;-142.70;42.31
6224;BME280;3145;42.726;23.342;2024-01-15T11:52:34;72452.13;;;-142.70;43.29
6224;BME280;3145;42.726;23.342;2024-01-15T11:55:06;72444.06;;;-142.70;43.10
6224;BME280;3145;42.726;23.342;2024-01-15T11:57:41;72440.03;;;-142.70;43.54
6224;BME280;3145;42.726;23.342;2024-01-15T12:00:10;72448.09;;;-142.70;43.36
6224;BME280;3145;42.726;23.342;2024-01-15T12:02:39;72452.13;;;-142.70;43.02
6224;BME280;3145;42.726;23.342;2024-01-15T12:05:07;72444.06;;;-142.70;43.19
6224;BME280;3145;42.726;23.342;2024-01-15T12:07:34;72444.06;;;-142.70;43.27
6224;BME280;3145;42.726;23.342;2024-01-15T12:10:01;72468.22;;;-142.70;43.84
6224;BME280;3145;42.726;23.342;2024-01-15T12:12:35;72470.25;;;-142.70;43.95
6224;BME280;3145;42.726;23.342;2024-01-15T12:15:04;72468.22;;;-142.70;44.10
6224;BME280;3145;42.726;23.342;2024-01-15T12:17:31;72462.19;;;-142.70;44.30
6224;BME280;3145;42.726;23.342;2024-01-15T12:19:59;72468.22;;;-142.70;43.92
6224;BME280;3145;42.726;23.342;2024-01-15T12:22:26;72480.31;;;-142.70;44.34
6224;BME280;3145;42.726;23.342;2024-01-15T12:24:53;72484.34;;;-142.70;44.77
6224;BME280;3145;42.726;23.342;2024-01-15T12:27:20;72492.41;;;-142.70;44.90
6224;BME280;3145;42.726;23.342;2024-01-15T12:29:47;72496.44;;;-142.70;45.28
6224;BME280;3145;42.726;23.342;2024-01-15T12:32:14;72482.34;;;-142.70;45.43
6224;BME280;3145;42.726;23.342;2024-01-15T12:34:41;72482.34;;;-142.70;45.20
6224;BME280;3145;42.726;23.342;2024-01-15T12:37:09;72452.13;;;-142.70;44.79
6224;BME280;3145;42.726;23.342;2024-01-15T12:39:37;72448.09;;;-142.70;44.20
6224;BME280;3145;42.726;23.342;2024-01-15T12:42:04;72436.00;;;-142.70;44.42
6224;BME280;3145;42.726;23.342;2024-01-15T12:44:32;72448.09;;;-142.70;44.21
6224;BME280;3145;42.726;23.342;2024-01-15T12:46:57;72438.00;;;-142.70;44.14
6224;BME280;3145;42.726;23.342;2024-01-15T12:49:25;72444.06;;;-142.70;44.04
6224;BME280;3145;42.726;23.342;2024-01-15T12:51:52;72460.16;;;-142.70;45.13
6224;BME280;3145;42.726;23.342;2024-01-15T12:54:22;72456.16;;;-142.70;45.82
6224;BME280;3145;42.726;23.342;2024-01-15T12:56:49;72450.09;;;-142.70;45.75